Time;durP1;ratioP1;P1;durP2;ratioP2;P2;SDS_P1;SDS_P2;PMS_P1;PMS_P2;Temp;Humidity;BMP_temperature;BMP_pressure;BME280_temperature;BME280_humidity;BME280_pressure;Samples;Min_cycle;Max_cycle;Signal;HPM_P1;HPM_P2
2021/04/30 00:00:29;;;;;;;12.89;9.17;;;;;;;16.34;45.74;98934.99;368811;110;1960798;-74
2021/04/30 00:01:35;;;;;;;13.65;8.76;;;;;;;16.36;45.76;98930.11;314642;112;2781839;-74
2021/04/30 00:02:41;;;;;;;15.45;9.32;;;;;;;16.20;46.06;98934.63;329288;112;1960772;-74
2021/04/30 00:03:47;;;;;;;13.98;8.73;;;;;;;16.39;45.77;98931.48;354002;112;1963899;-73
2021/04/30 00:04:52;;;;;;;12.43;8.63;;;;;;;16.37;45.80;98930.92;355416;112;1961802;-73
2021/04/30 00:05:58;;;;;;;13.65;8.86;;;;;;;16.35;45.78;98930.36;355141;112;1961957;-72
2021/04/30 00:07:03;;;;;;;13.74;8.17;;;;;;;16.44;45.71;98931.52;349677;114;1962997;-73
2021/04/30 00:08:08;;;;;;;16.89;9.53;;;;;;;16.44;45.66;98926.89;347189;114;1960901;-74
2021/04/30 00:09:13;;;;;;;14.98;9.08;;;;;;;16.44;46.02;98928.80;351818;113;1965011;-73
2021/04/30 00:10:19;;;;;;;15.83;9.51;;;;;;;16.45;45.78;98927.70;353454;113;1961887;-73
2021/04/30 00:11:24;;;;;;;16.27;8.97;;;;;;;16.47;45.85;98931.00;357562;111;1962011;-73
2021/04/30 00:12:30;;;;;;;12.96;8.72;;;;;;;16.50;45.70;98916.84;361929;111;1961888;-72
2021/04/30 00:13:36;;;;;;;20.32;8.99;;;;;;;16.47;45.79;98926.36;359993;111;1963000;-72
2021/04/30 00:14:43;;;;;;;14.16;8.52;;;;;;;16.47;45.87;98929.09;350957;113;2861928;-74
2021/04/30 00:15:48;;;;;;;15.54;8.90;;;;;;;16.34;45.98;98926.00;357265;111;1961920;-74
2021/04/30 00:16:55;;;;;;;14.96;9.00;;;;;;;16.48;45.93;98935.36;357658;110;1961945;-73
2021/04/30 00:18:04;;;;;;;14.87;9.19;;;;;;;16.49;45.69;98928.84;354562;113;1961992;-74
2021/04/30 00:19:08;;;;;;;16.34;9.02;;;;;;;16.51;45.71;98928.55;355324;113;1963961;-73
2021/04/30 00:20:15;;;;;;;14.27;8.63;;;;;;;16.50;45.77;98927.73;336931;111;1964000;-73
2021/04/30 00:21:21;;;;;;;15.49;9.42;;;;;;;16.55;45.64;98933.23;356417;111;1961945;-73
2021/04/30 00:22:27;;;;;;;14.39;8.56;;;;;;;16.49;45.97;98928.84;360760;111;1964912;-73
2021/04/30 00:23:44;;;;;;;15.31;9.66;;;;;;;16.52;45.70;98933.76;358906;111;1961947;-73
2021/04/30 00:24:50;;;;;;;14.02;8.72;;;;;;;16.60;45.61;98929.72;315204;110;2141007;-73
2021/04/30 00:25:57;;;;;;;11.99;7.88;;;;;;;16.62;45.56;98930.28;341242;109;1961968;-73
2021/04/30 00:27:03;;;;;;;13.21;8.43;;;;;;;16.61;45.60;98929.44;370410;108;1961989;-73
2021/04/30 00:28:11;;;;;;;16.56;9.51;;;;;;;16.63;45.53;98921.01;368995;107;1962032;-74
2021/04/30 00:29:17;;;;;;;15.82;9.39;;;;;;;16.63;45.66;98921.83;346776;117;1962067;-73
2021/04/30 00:30:26;;;;;;;14.65;8.87;;;;;;;16.64;45.49;98918.00;303677;114;2121998;-74
2021/04/30 00:31:33;;;;;;;16.49;8.95;;;;;;;16.68;45.51;98921.04;337685;118;1960873;-74
2021/04/30 00:32:38;;;;;;;15.33;8.95;;;;;;;16.66;45.59;98915.02;333387;119;1962979;-74
2021/04/30 00:33:44;;;;;;;14.23;9.20;;;;;;;16.64;45.63;98923.45;341820;115;1962082;-73
2021/04/30 00:34:49;;;;;;;13.16;9.15;;;;;;;16.64;45.68;98923.45;339053;116;1964945;-73
2021/04/30 00:35:55;;;;;;;15.76;8.43;;;;;;;16.65;45.66;98916.13;339565;117;1962034;-73
2021/04/30 00:37:03;;;;;;;11.89;7.90;;;;;;;16.65;45.69;98914.20;336036;118;1961947;-74
2021/04/30 00:38:08;;;;;;;14.76;9.10;;;;;;;16.64;45.80;98919.91;337036;118;1962014;-73
2021/04/30 00:39:14;;;;;;;14.98;8.86;;;;;;;16.63;45.71;98907.38;338735;119;1962005;-72
2021/04/30 00:40:19;;;;;;;17.02;9.40;;;;;;;16.65;45.73;98913.39;341201;116;1962096;-73
2021/04/30 00:41:25;;;;;;;13.54;8.44;;;;;;;16.71;45.58;98917.78;340188;119;1963943;-74
2021/04/30 00:42:33;;;;;;;14.62;8.93;;;;;;;16.72;45.57;98913.95;328077;120;1960623;-74
2021/04/30 00:43:38;;;;;;;14.12;8.38;;;;;;;16.68;45.63;98912.86;294365;120;2400941;-73
2021/04/30 00:44:45;;;;;;;13.57;8.66;;;;;;;16.69;45.64;98911.77;312869;122;1964017;-73
2021/04/30 00:45:53;;;;;;;11.99;8.49;;;;;;;16.69;45.73;98912.58;332796;120;1961952;-73
2021/04/30 00:46:59;;;;;;;13.48;8.13;;;;;;;16.69;45.69;98915.30;325056;120;2893995;-73
2021/04/30 00:48:08;;;;;;;12.39;8.56;;;;;;;16.71;45.89;98915.05;308378;122;1962073;-73
2021/04/30 00:49:13;;;;;;;13.51;8.67;;;;;;;16.70;45.65;98908.78;325015;122;2899024;-73
2021/04/30 00:50:24;;;;;;;14.56;8.06;;;;;;;16.68;45.64;98913.67;317351;120;1961919;-73
2021/04/30 00:51:29;;;;;;;15.59;9.51;;;;;;;16.68;45.67;98910.13;332550;122;1961961;-73
2021/04/30 00:52:36;;;;;;;12.26;8.15;;;;;;;16.68;45.70;98910.95;333488;116;1961966;-73
2021/04/30 00:53:41;;;;;;;13.82;8.40;;;;;;;16.71;45.64;98915.05;336575;119;1961901;-73
2021/04/30 00:54:47;;;;;;;12.08;8.70;;;;;;;16.71;45.61;98913.14;344621;116;1962833;-73
2021/04/30 00:55:52;;;;;;;13.54;7.82;;;;;;;16.67;45.83;98912.05;345343;116;1960939;-74
2021/04/30 00:56:58;;;;;;;23.86;9.53;;;;;;;16.68;45.72;98910.95;345940;114;1960855;-73
2021/04/30 00:58:03;;;;;;;12.16;7.83;;;;;;;16.68;45.75;98908.22;345758;114;1960698;-74
2021/04/30 00:59:10;;;;;;;17.66;9.83;;;;;;;16.65;45.85;98913.39;345665;115;1960849;-74
2021/04/30 01:00:17;;;;;;;11.68;7.93;;;;;;;16.65;45.79;98914.20;345637;117;1960850;-73
2021/04/30 01:01:22;;;;;;;13.17;7.59;;;;;;;16.65;45.78;98908.75;322051;115;1960867;-73
2021/04/30 01:02:28;;;;;;;13.51;7.80;;;;;;;16.64;45.74;98904.36;327854;114;1960775;-73
2021/04/30 01:03:35;;;;;;;14.50;8.53;;;;;;;16.63;45.81;98910.10;335268;116;1960818;-73
2021/04/30 01:04:41;;;;;;;12.02;7.17;;;;;;;16.62;45.83;98909.28;341836;118;1960804;-73
2021/04/30 01:05:46;;;;;;;12.68;8.03;;;;;;;16.58;45.96;98910.06;341425;116;1960870;-73
2021/04/30 01:06:52;;;;;;;12.00;7.96;;;;;;;16.61;45.85;98904.90;343422;115;1960731;-73
2021/04/30 01:07:57;;;;;;;13.84;8.23;;;;;;;16.63;45.85;98910.10;342165;119;1961939;-73
2021/04/30 01:09:05;;;;;;;14.69;8.48;;;;;;;16.60;45.91;98914.17;301848;116;2877008;-73
2021/04/30 01:10:12;;;;;;;11.56;8.10;;;;;;;16.62;45.94;98905.74;337040;119;1961869;-72
2021/04/30 01:11:18;;;;;;;13.48;8.60;;;;;;;16.60;45.95;98907.91;339353;116;1962962;-73
2021/04/30 01:12:25;;;;;;;13.23;7.78;;;;;;;16.61;45.93;98898.63;301529;119;2758922;-74
2021/04/30 01:13:30;;;;;;;14.36;8.02;;;;;;;16.58;46.00;98904.62;336994;119;1962024;-73
2021/04/30 01:14:35;;;;;;;12.20;7.11;;;;;;;16.58;45.97;98905.44;336868;120;1963952;-73
2021/04/30 01:15:41;;;;;;;11.05;7.95;;;;;;;16.59;46.00;98906.25;342661;117;1964021;-73
2021/04/30 01:16:47;;;;;;;13.42;8.28;;;;;;;16.60;46.00;98905.19;340686;116;1962913;-74
2021/04/30 01:17:53;;;;;;;12.41;8.74;;;;;;;16.60;45.93;98906.00;339736;116;1961969;-73
2021/04/30 01:18:58;;;;;;;12.27;7.84;;;;;;;16.62;45.91;98906.56;340903;117;1962953;-73
2021/04/30 01:20:07;;;;;;;14.06;8.15;;;;;;;16.62;45.91;98898.38;341056;119;1962048;-73
2021/04/30 01:21:14;;;;;;;11.61;7.96;;;;;;;16.67;45.80;98901.13;341113;119;1961973;-73
2021/04/30 01:22:34;;;;;;;12.58;8.86;;;;;;;16.76;45.61;98895.98;339493;119;1962971;-73
2021/04/30 01:23:47;;;;;;;11.92;8.19;;;;;;;16.71;45.69;98898.69;336321;118;1962125;-73
2021/04/30 01:24:53;;;;;;;14.33;8.14;;;;;;;16.69;45.76;98903.58;337220;120;1963942;-73
2021/04/30 01:25:58;;;;;;;12.39;8.31;;;;;;;16.70;45.67;98897.06;340443;118;1962103;-73
2021/04/30 01:27:04;;;;;;;13.71;8.28;;;;;;;16.66;45.75;98895.94;341639;116;1962133;-74
2021/04/30 01:28:10;;;;;;;10.96;7.71;;;;;;;16.70;45.68;98903.33;343142;116;1961986;-72
2021/04/30 01:29:15;;;;;;;14.19;8.56;;;;;;;16.69;45.69;98900.85;341634;117;1961938;-72
2021/04/30 01:30:26;;;;;;;11.41;7.53;;;;;;;16.67;45.71;98898.41;297485;117;2097963;-73
2021/04/30 01:31:33;;;;;;;12.31;8.12;;;;;;;16.63;45.84;98891.83;339636;117;1962044;-73
2021/04/30 01:32:39;;;;;;;13.61;8.03;;;;;;;16.64;45.86;98898.09;289565;117;2188948;-73
2021/04/30 01:33:45;;;;;;;13.92;8.31;;;;;;;16.64;45.87;98903.55;339674;118;1965054;-73
2021/04/30 01:34:50;;;;;;;11.68;8.27;;;;;;;16.62;45.89;98890.20;336219;119;1961974;-73
2021/04/30 01:35:56;;;;;;;13.06;8.10;;;;;;;16.59;45.98;98898.06;340815;117;1961958;-74
2021/04/30 01:37:01;;;;;;;12.88;7.73;;;;;;;16.59;46.00;98895.34;339554;119;1963017;-73
2021/04/30 01:38:07;;;;;;;16.07;8.45;;;;;;;16.57;46.04;98892.08;339911;117;1962031;-73
2021/04/30 01:39:14;;;;;;;12.93;8.06;;;;;;;16.55;46.07;98892.33;339573;117;1961894;-73
2021/04/30 01:40:23;;;;;;;14.23;8.09;;;;;;;16.56;46.06;98890.42;320980;117;1962011;-74
2021/04/30 01:41:29;;;;;;;14.92;8.80;;;;;;;16.56;46.12;98893.15;339099;119;1961970;-73
2021/04/30 01:42:35;;;;;;;15.64;8.17;;;;;;;16.55;46.10;98886.06;304766;117;2890942;-73
2021/04/30 01:43:40;;;;;;;17.83;8.45;;;;;;;16.56;46.12;98893.15;315927;119;1961996;-74
2021/04/30 01:44:49;;;;;;;14.18;7.88;;;;;;;16.53;46.25;98888.23;317157;119;1961906;-73
2021/04/30 01:45:59;;;;;;;12.51;8.24;;;;;;;16.54;46.29;98882.52;340399;117;1962966;-73
2021/04/30 01:47:05;;;;;;;14.27;7.93;;;;;;;16.52;46.22;98886.59;331498;117;2908204;-74
2021/04/30 01:48:13;;;;;;;11.76;7.93;;;;;;;16.55;46.15;98875.16;308978;119;2508931;-73
2021/04/30 01:49:19;;;;;;;13.52;8.17;;;;;;;16.52;46.23;98883.88;337090;119;1962991;-73
2021/04/30 01:50:25;;;;;;;13.32;8.21;;;;;;;16.51;46.22;98874.84;339622;119;1961970;-73
2021/04/30 01:51:34;;;;;;;13.06;8.06;;;;;;;16.56;46.11;98874.88;338174;117;1962036;-73
2021/04/30 01:52:38;;;;;;;12.67;8.42;;;;;;;16.48;46.28;98876.22;338287;117;1961915;-74
2021/04/30 01:53:44;;;;;;;12.49;8.06;;;;;;;16.45;46.32;98874.00;337761;117;1962078;-73
2021/04/30 01:54:49;;;;;;;13.12;8.65;;;;;;;16.43;46.37;98881.64;338287;117;1962021;-73
2021/04/30 01:56:00;;;;;;;14.92;8.15;;;;;;;16.42;46.45;98874.53;337220;117;1960953;-73
2021/04/30 01:57:05;;;;;;;13.06;8.83;;;;;;;16.40;46.53;98873.97;337584;117;1961974;-73
2021/04/30 01:58:11;;;;;;;15.19;8.82;;;;;;;16.42;46.82;98877.26;340557;117;1960975;-73
2021/04/30 01:59:17;;;;;;;14.18;8.25;;;;;;;16.41;46.62;98872.91;335693;121;1962887;-75
2021/04/30 02:00:26;;;;;;;12.16;8.27;;;;;;;16.44;46.53;98877.01;307433;117;2582894;-73
2021/04/30 02:01:31;;;;;;;13.86;8.56;;;;;;;16.38;46.57;98870.70;340391;119;1962052;-73
2021/04/30 02:02:48;;;;;;;13.88;8.14;;;;;;;16.32;46.92;98869.02;339958;119;1961937;-74
2021/04/30 02:03:59;;;;;;;15.15;8.70;;;;;;;16.31;46.72;98866.57;337718;119;1962025;-73
2021/04/30 02:05:05;;;;;;;12.53;8.38;;;;;;;16.31;46.67;98863.84;272497;117;2341926;-74
2021/04/30 02:06:11;;;;;;;14.49;8.82;;;;;;;16.28;46.85;98862.47;339695;119;1964085;-73
2021/04/30 02:07:16;;;;;;;15.39;8.37;;;;;;;16.23;46.97;98865.97;337645;117;1962053;-73
2021/04/30 02:08:23;;;;;;;13.93;8.89;;;;;;;16.24;46.84;98864.06;340222;117;1962024;-73
2021/04/30 02:09:30;;;;;;;11.22;7.91;;;;;;;16.24;46.96;98862.15;276738;117;2319896;-73
2021/04/30 02:10:37;;;;;;;13.86;8.87;;;;;;;16.21;47.11;98861.86;334260;117;1961996;-73
2021/04/30 02:11:42;;;;;;;14.44;8.58;;;;;;;16.23;46.91;98859.70;338545;119;1961927;-73
2021/04/30 02:12:49;;;;;;;15.94;8.39;;;;;;;16.21;46.91;98851.78;336917;119;1960877;-73
2021/04/30 02:13:55;;;;;;;13.62;8.19;;;;;;;16.19;47.19;98855.84;338319;117;1962034;-74
2021/04/30 02:15:00;;;;;;;12.30;8.57;;;;;;;16.18;47.00;98855.03;339019;119;1961932;-73
2021/04/30 02:16:06;;;;;;;16.23;8.76;;;;;;;16.17;47.07;98852.59;302724;119;2715021;-75
2021/04/30 02:17:12;;;;;;;14.71;8.05;;;;;;;16.13;47.29;98851.45;304994;119;1994004;-74
2021/04/30 02:18:18;;;;;;;16.21;8.88;;;;;;;16.12;47.32;98852.55;323552;119;1961998;-73
2021/04/30 02:19:23;;;;;;;14.67;8.54;;;;;;;16.08;47.36;98859.59;340387;119;1961920;-73
2021/04/30 02:20:30;;;;;;;17.14;9.66;;;;;;;16.09;47.39;98858.50;340417;117;1961951;-73
2021/04/30 02:21:36;;;;;;;12.97;9.28;;;;;;;16.01;47.79;98849.75;337735;120;1961908;-74
2021/04/30 02:22:42;;;;;;;13.06;9.47;;;;;;;16.00;47.56;98850.00;340423;117;1962011;-73
2021/04/30 02:23:47;;;;;;;21.38;9.68;;;;;;;16.00;47.54;98852.73;331264;117;2934942;-74
2021/04/30 02:24:53;;;;;;;13.88;8.14;;;;;;;15.99;47.58;98853.82;302047;119;2690929;-73
2021/04/30 02:25:59;;;;;;;16.39;8.69;;;;;;;16.02;47.63;98848.66;319304;117;1962034;-74
2021/04/30 02:27:04;;;;;;;13.67;8.94;;;;;;;15.99;47.61;98834.75;330837;117;1960726;-73
2021/04/30 02:28:09;;;;;;;14.72;9.18;;;;;;;15.97;47.96;98851.34;338793;117;1963934;-73
2021/04/30 02:29:15;;;;;;;13.30;8.98;;;;;;;15.95;47.82;98842.61;340971;116;1961011;-73
2021/04/30 02:30:24;;;;;;;13.59;8.32;;;;;;;15.96;47.75;98846.98;341591;117;1961992;-73
2021/04/30 02:31:29;;;;;;;14.06;8.99;;;;;;;15.96;47.77;98849.72;278208;117;2302977;-75
2021/04/30 02:32:36;;;;;;;15.26;8.49;;;;;;;15.93;47.81;98847.52;345290;117;1962996;-73
2021/04/30 02:33:42;;;;;;;12.79;8.40;;;;;;;15.94;47.84;98860.04;345850;115;1962875;-73
2021/04/30 02:34:47;;;;;;;14.86;8.66;;;;;;;15.94;47.87;98860.04;345184;115;1961938;-73
2021/04/30 02:35:53;;;;;;;17.21;9.00;;;;;;;15.95;47.83;98861.67;344635;115;1962036;-73
2021/04/30 02:36:58;;;;;;;12.71;8.57;;;;;;;15.96;47.96;98866.05;346292;115;1961938;-74
2021/04/30 02:38:06;;;;;;;13.59;8.52;;;;;;;15.99;47.84;98857.36;345179;117;1961989;-73
2021/04/30 02:39:11;;;;;;;14.82;8.84;;;;;;;16.02;47.88;98858.74;347302;117;1962006;-74
2021/04/30 02:40:21;;;;;;;13.87;8.94;;;;;;;16.01;47.82;98859.84;346003;116;1962914;-74
2021/04/30 02:41:26;;;;;;;13.54;8.89;;;;;;;16.05;47.73;98859.03;316670;115;1960894;-74
2021/04/30 02:42:31;;;;;;;17.56;8.89;;;;;;;16.05;47.72;98860.94;311339;115;1980984;-73
2021/04/30 02:43:37;;;;;;;16.91;9.18;;;;;;;16.08;47.68;98863.13;334317;115;1962093;-73
2021/04/30 02:44:43;;;;;;;14.87;8.72;;;;;;;16.10;47.62;98866.42;347385;115;1962996;-73
2021/04/30 02:45:53;;;;;;;16.78;9.46;;;;;;;16.11;47.56;98857.16;344854;115;1961953;-73
2021/04/30 02:46:59;;;;;;;15.43;10.02;;;;;;;16.15;47.55;98861.02;340331;117;1962021;-74
2021/04/30 02:48:23;;;;;;;17.09;9.37;;;;;;;16.12;47.73;98860.73;341003;115;1963072;-73
2021/04/30 02:49:26;;;;;;;14.54;8.97;;;;;;;16.15;47.52;98854.75;341592;117;1962072;-73
2021/04/30 02:50:29;;;;;;;13.45;9.48;;;;;;;16.12;47.83;98869.72;336244;117;2928870;-74
2021/04/30 02:51:35;;;;;;;15.58;9.14;;;;;;;16.15;47.57;98852.02;343610;115;1962042;-73
2021/04/30 02:52:40;;;;;;;13.92;8.59;;;;;;;16.12;47.65;98866.17;346210;116;1961967;-73
2021/04/30 02:53:45;;;;;;;14.46;9.19;;;;;;;16.15;47.51;98858.29;346894;116;1962009;-74
2021/04/30 02:54:51;;;;;;;14.02;9.19;;;;;;;16.19;47.47;98862.11;343440;117;1961972;-74
2021/04/30 02:55:57;;;;;;;15.62;10.47;;;;;;;16.20;47.40;98862.96;346329;115;1964186;-73
2021/04/30 02:57:03;;;;;;;15.08;9.43;;;;;;;16.19;47.41;98853.94;345221;115;1961004;-73
2021/04/30 02:58:11;;;;;;;13.94;9.00;;;;;;;16.20;47.42;98857.51;308708;115;2023038;-74
2021/04/30 02:59:16;;;;;;;15.90;8.69;;;;;;;16.23;47.34;98862.43;342170;117;1964075;-73
2021/04/30 03:00:25;;;;;;;13.04;8.43;;;;;;;16.26;47.21;98864.63;345785;115;1961979;-73
2021/04/30 03:01:31;;;;;;;16.87;9.36;;;;;;;16.28;47.19;98858.92;345914;115;1961959;-73
2021/04/30 03:02:37;;;;;;;16.12;9.59;;;;;;;16.26;47.22;98854.53;341716;117;1962937;-73
2021/04/30 03:03:42;;;;;;;17.44;8.87;;;;;;;16.29;47.22;98853.20;346900;117;1961959;-74
2021/04/30 03:04:49;;;;;;;12.93;7.74;;;;;;;16.32;47.13;98860.02;345304;115;1962898;-74
2021/04/30 03:05:55;;;;;;;15.59;8.93;;;;;;;16.28;47.23;98865.19;331190;115;2852009;-73
2021/04/30 03:07:00;;;;;;;15.78;8.90;;;;;;;16.32;47.07;98863.56;322706;115;1961951;-74
2021/04/30 03:08:06;;;;;;;13.28;9.12;;;;;;;16.32;47.06;98860.84;328021;115;1961999;-74
2021/04/30 03:09:11;;;;;;;14.41;8.64;;;;;;;16.35;47.03;98857.58;332612;115;1961967;-74
2021/04/30 03:10:18;;;;;;;14.52;9.08;;;;;;;16.36;46.97;98856.52;342469;117;1964011;-73
2021/04/30 03:11:23;;;;;;;15.71;9.08;;;;;;;16.39;46.88;98858.71;345098;115;1961940;-74
2021/04/30 03:12:28;;;;;;;16.59;8.73;;;;;;;16.41;46.85;98851.09;342597;119;1962033;-74
2021/04/30 03:13:34;;;;;;;11.83;8.03;;;;;;;16.40;46.86;98854.89;346108;117;1961995;-74
2021/04/30 03:14:39;;;;;;;14.41;7.61;;;;;;;16.37;46.89;98854.61;346938;117;1962003;-74
2021/04/30 03:15:44;;;;;;;15.66;8.52;;;;;;;16.41;46.79;98856.55;345885;115;1962069;-74
2021/04/30 03:16:52;;;;;;;12.24;7.97;;;;;;;16.44;46.76;98853.29;345652;115;1962935;-73
2021/04/30 03:17:57;;;;;;;16.89;8.19;;;;;;;16.45;46.69;98859.55;288929;115;2252904;-74
2021/04/30 03:19:03;;;;;;;12.58;7.86;;;;;;;16.47;46.68;98857.39;319918;117;1962022;-74
2021/04/30 03:20:10;;;;;;;13.38;7.53;;;;;;;16.46;46.70;98864.76;345634;117;1963987;-74
2021/04/30 03:21:16;;;;;;;12.04;7.62;;;;;;;16.46;46.63;98864.76;346810;115;1964939;-73
2021/04/30 03:22:22;;;;;;;17.93;8.19;;;;;;;16.51;46.52;98868.58;344748;117;1961980;-73
2021/04/30 03:23:28;;;;;;;11.99;7.82;;;;;;;16.51;46.51;98865.86;304430;117;2889986;-74
2021/04/30 03:24:33;;;;;;;13.41;8.56;;;;;;;16.48;46.53;98862.59;300659;117;2110946;-73
2021/04/30 03:25:40;;;;;;;12.81;7.63;;;;;;;16.51;46.44;98868.58;300450;115;2115913;-74
2021/04/30 03:26:59;;;;;;;12.56;8.14;;;;;;;16.36;46.62;98858.42;342971;117;1960950;-73
2021/04/30 03:28:04;;;;;;;14.17;7.47;;;;;;;16.42;46.62;98863.63;318678;109;2140990;-74
2021/04/30 03:29:10;;;;;;;13.27;7.51;;;;;;;16.33;46.83;98865.23;349465;112;1961972;-73
2021/04/30 03:30:17;;;;;;;12.22;7.26;;;;;;;16.34;46.76;98861.41;358764;112;1961932;-74
2021/04/30 03:31:23;;;;;;;14.44;7.46;;;;;;;16.40;46.63;98860.34;361325;110;1961997;-73
2021/04/30 03:32:29;;;;;;;15.86;8.54;;;;;;;16.49;46.37;98864.22;366449;111;1961992;-74
2021/04/30 03:33:36;;;;;;;14.72;8.46;;;;;;;16.52;46.31;98865.60;335115;108;2530798;-73
2021/04/30 03:34:41;;;;;;;12.89;6.88;;;;;;;16.56;46.21;98857.70;353592;110;1962945;-72
2021/04/30 03:35:46;;;;;;;13.64;7.19;;;;;;;16.52;46.25;98856.61;357798;110;1961978;-73
2021/04/30 03:36:51;;;;;;;13.07;7.32;;;;;;;16.50;46.23;98859.59;365105;110;1961882;-73
2021/04/30 03:37:57;;;;;;;13.12;7.66;;;;;;;16.47;46.38;98862.84;366465;110;1961992;-73
2021/04/30 03:39:04;;;;;;;17.33;7.76;;;;;;;16.46;46.27;98853.85;366258;110;1961978;-73
2021/04/30 03:40:10;;;;;;;12.73;7.20;;;;;;;16.39;46.43;98849.72;362276;111;1961850;-73
2021/04/30 03:41:17;;;;;;;14.89;8.96;;;;;;;16.43;46.30;98856.27;360411;110;1962031;-73
2021/04/30 03:42:22;;;;;;;13.89;8.18;;;;;;;16.43;46.23;98856.27;318325;110;2069997;-74
2021/04/30 03:43:27;;;;;;;15.09;8.44;;;;;;;16.43;46.23;98853.54;315697;107;2071661;-73
2021/04/30 03:44:32;;;;;;;13.08;7.62;;;;;;;16.42;46.36;98843.73;305738;115;2044989;-74
2021/04/30 03:45:38;;;;;;;16.04;7.89;;;;;;;16.42;46.30;98855.45;335877;113;1964025;-73
2021/04/30 03:46:43;;;;;;;17.34;7.98;;;;;;;16.44;46.26;98858.74;361600;109;1961999;-75
2021/04/30 03:47:49;;;;;;;15.84;7.54;;;;;;;16.42;46.25;98857.36;364207;109;1961986;-74
2021/04/30 03:48:54;;;;;;;16.11;7.46;;;;;;;16.47;46.16;98860.94;362232;111;1961954;-74
2021/04/30 03:50:00;;;;;;;13.11;8.32;;;;;;;16.48;46.10;98862.59;361512;109;1961927;-74
2021/04/30 03:51:05;;;;;;;14.50;7.68;;;;;;;16.52;46.02;98868.33;362833;111;1963850;-73
2021/04/30 03:52:11;;;;;;;12.27;6.87;;;;;;;16.53;45.96;98861.78;364377;111;1962013;-73
2021/04/30 03:53:16;;;;;;;12.55;7.16;;;;;;;16.56;45.82;98863.16;365005;111;1961993;-73
2021/04/30 03:54:22;;;;;;;12.78;7.57;;;;;;;16.60;45.74;98873.28;363810;111;1961958;-73
2021/04/30 03:55:29;;;;;;;13.06;7.82;;;;;;;16.56;45.74;98866.70;358032;111;1964023;-74
2021/04/30 03:56:36;;;;;;;15.39;8.33;;;;;;;16.52;45.76;98860.15;364952;109;1962020;-75
2021/04/30 03:57:41;;;;;;;15.98;9.38;;;;;;;16.57;45.60;98865.63;362273;111;1961978;-73
2021/04/30 03:58:46;;;;;;;15.02;8.73;;;;;;;16.56;45.65;98863.16;361201;110;1963990;-73
2021/04/30 03:59:52;;;;;;;15.59;9.23;;;;;;;16.56;45.63;98865.88;361963;110;1961951;-73
2021/04/30 04:00:58;;;;;;;14.69;7.72;;;;;;;16.56;45.59;98861.24;363530;111;1961946;-73
2021/04/30 04:02:03;;;;;;;15.10;8.06;;;;;;;16.53;45.66;98863.69;365626;110;1961967;-74
2021/04/30 04:03:10;;;;;;;16.94;7.91;;;;;;;16.52;45.65;98854.70;364768;111;1961901;-74
2021/04/30 04:04:27;;;;;;;13.91;9.02;;;;;;;16.51;45.62;98850.31;327748;109;2675982;-74
2021/04/30 04:05:32;;;;;;;16.11;8.31;;;;;;;16.49;45.62;98853.32;378811;106;1962004;-74
2021/04/30 04:06:38;;;;;;;14.78;8.22;;;;;;;16.47;45.62;98847.30;367633;109;1962092;-74
2021/04/30 04:07:43;;;;;;;12.97;7.93;;;;;;;16.51;45.56;98847.58;367290;109;1961994;-73
2021/04/30 04:08:48;;;;;;;15.71;7.78;;;;;;;16.53;45.52;98847.33;368085;109;1962051;-75
2021/04/30 04:09:54;;;;;;;17.24;8.09;;;;;;;16.56;45.47;98852.25;369098;108;1962951;-73
2021/04/30 04:10:59;;;;;;;10.94;7.13;;;;;;;16.60;45.41;98842.47;369699;108;1963871;-75
2021/04/30 04:12:06;;;;;;;12.14;7.12;;;;;;;16.62;45.33;98843.03;367367;109;1962928;-74
2021/04/30 04:13:21;;;;;;;16.46;8.04;;;;;;;16.67;45.23;98848.48;316953;109;2152001;-74
2021/04/30 04:14:27;;;;;;;12.22;6.89;;;;;;;16.68;45.22;98844.69;372056;109;1962011;-74
2021/04/30 04:15:32;;;;;;;13.76;7.27;;;;;;;16.69;45.12;98858.03;369829;108;1962045;-74
2021/04/30 04:16:39;;;;;;;14.92;7.66;;;;;;;16.73;45.09;98852.08;369534;109;1966021;-74
2021/04/30 04:17:45;;;;;;;10.66;5.96;;;;;;;16.79;44.96;98851.03;368203;109;1963961;-74
2021/04/30 04:18:51;;;;;;;12.19;6.81;;;;;;;16.82;44.84;98850.49;369292;108;1963021;-73
2021/04/30 04:19:56;;;;;;;11.49;6.33;;;;;;;16.86;44.79;98851.61;368716;108;1961042;-75
2021/04/30 04:21:02;;;;;;;10.27;5.69;;;;;;;16.70;45.01;98858.88;368274;109;1962981;-74
2021/04/30 04:22:07;;;;;;;10.38;5.33;;;;;;;16.88;44.73;98849.42;365118;111;1962971;-74
2021/04/30 04:23:14;;;;;;;9.83;5.30;;;;;;;16.93;44.61;98846.70;360960;108;2865920;-73
2021/04/30 04:24:20;;;;;;;12.22;5.93;;;;;;;16.96;44.47;98846.17;362572;108;1964923;-73
2021/04/30 04:25:26;;;;;;;12.14;6.01;;;;;;;17.02;44.44;98845.13;369084;108;1961893;-74
2021/04/30 04:26:31;;;;;;;11.43;5.80;;;;;;;17.04;44.42;98847.56;373054;108;1960977;-74
2021/04/30 04:27:36;;;;;;;14.57;7.03;;;;;;;17.09;44.32;98842.97;371338;108;1961093;-73
2021/04/30 04:28:42;;;;;;;11.33;5.79;;;;;;;17.05;44.31;98835.58;370367;108;1961889;-74
2021/04/30 04:29:47;;;;;;;13.18;6.00;;;;;;;17.10;44.23;98841.05;369672;108;1961853;-74
2021/04/30 04:30:55;;;;;;;12.01;6.11;;;;;;;17.15;44.14;98838.34;373286;106;1961915;-74
2021/04/30 04:32:00;;;;;;;11.83;6.16;;;;;;;17.20;44.00;98849.27;371456;106;1961942;-74
2021/04/30 04:33:07;;;;;;;13.18;6.28;;;;;;;17.24;43.97;98844.08;369163;109;1961906;-74
2021/04/30 04:34:12;;;;;;;13.15;6.60;;;;;;;17.31;43.78;98837.27;371274;108;1963925;-73
2021/04/30 04:35:19;;;;;;;13.89;7.03;;;;;;;17.36;43.82;98845.47;370904;108;1963094;-73
2021/04/30 04:36:24;;;;;;;11.88;6.21;;;;;;;17.42;43.69;98840.84;368732;109;1960836;-73
2021/04/30 04:37:30;;;;;;;11.80;6.52;;;;;;;17.49;43.55;98849.59;368390;107;1961974;-74
2021/04/30 04:38:35;;;;;;;13.27;7.17;;;;;;;17.50;43.47;98836.75;370820;109;1961943;-74
2021/04/30 04:39:40;;;;;;;11.51;6.38;;;;;;;17.57;43.33;98842.75;367291;109;1961934;-73
2021/04/30 04:40:45;;;;;;;11.33;6.17;;;;;;;17.61;43.26;98835.66;369894;109;1961013;-74
2021/04/30 04:41:52;;;;;;;10.87;5.91;;;;;;;17.66;43.11;98840.31;370538;108;1961992;-74
2021/04/30 04:42:58;;;;;;;11.83;6.24;;;;;;;17.68;43.08;98830.76;369511;108;1961876;-74
2021/04/30 04:44:04;;;;;;;14.16;6.24;;;;;;;17.75;42.98;98823.09;327173;108;2762035;-75
2021/04/30 04:45:10;;;;;;;12.97;6.91;;;;;;;17.76;42.96;98829.39;354611;108;1961982;-74
2021/04/30 04:46:17;;;;;;;13.92;6.29;;;;;;;17.79;42.83;98824.22;374703;108;1962092;-75
2021/04/30 04:47:23;;;;;;;11.63;6.42;;;;;;;17.82;42.82;98822.86;371235;108;1962025;-74
2021/04/30 04:48:30;;;;;;;10.95;6.27;;;;;;;17.83;42.79;98829.95;362609;106;1960881;-74
2021/04/30 04:49:36;;;;;;;13.31;5.96;;;;;;;17.72;42.99;98822.83;355816;113;1961912;-74
2021/04/30 04:50:43;;;;;;;11.12;6.33;;;;;;;17.81;42.84;98818.50;354625;114;1961978;-74
2021/04/30 04:51:51;;;;;;;11.59;6.18;;;;;;;17.83;42.87;98823.67;306415;116;2077973;-74
2021/04/30 04:52:56;;;;;;;13.42;6.10;;;;;;;17.81;42.88;98821.23;350039;114;1961930;-75
2021/04/30 04:54:02;;;;;;;11.12;6.43;;;;;;;17.88;42.83;98823.67;349608;114;1962903;-74
2021/04/30 04:55:11;;;;;;;15.23;6.71;;;;;;;17.84;42.91;98823.41;346455;115;1962870;-74
2021/04/30 04:56:18;;;;;;;10.59;5.60;;;;;;;17.97;42.68;98822.04;355026;110;1960666;-74
2021/04/30 04:57:24;;;;;;;15.06;7.09;;;;;;;17.93;42.76;98824.48;343819;115;1961892;-75
2021/04/30 04:58:29;;;;;;;13.89;5.99;;;;;;;17.95;42.69;98830.50;357616;113;1961941;-74
2021/04/30 04:59:35;;;;;;;13.43;6.22;;;;;;;17.99;42.58;98823.41;360774;110;1960962;-75
2021/04/30 05:00:42;;;;;;;10.92;6.16;;;;;;;18.05;42.53;98828.84;327956;110;2601898;-73
2021/04/30 05:01:48;;;;;;;9.58;5.76;;;;;;;18.09;42.37;98819.00;332070;110;1965050;-74